This is the latest recevied weather packets stored in our database for station/object TG5ALY-16. If no packets are shown the sender has not sent any weather packets the latest 10 day(s).
| Time | Temp. | Humidity | Pressure | Rain* | Wind** | Luminosity | Snow |
|---|---|---|---|---|---|---|---|
| 1777801062 | 13.33° C | 84% | 1018 hPa | 0 mm | - | - | - |
| 1777800461 | 13.33° C | 84% | 1018 hPa | 0 mm | - | - | - |
| 1777799861 | 12.78° C | 84% | 1018 hPa | 0 mm | - | - | - |
| 1777799260 | 12.78° C | 85% | 1018 hPa | 0 mm | - | - | - |
| 1777798659 | 12.78° C | 85% | 1018 hPa | 0 mm | - | - | - |
| 1777798059 | 12.78° C | 85% | 1018 hPa | 0 mm | - | - | - |
| 1777797458 | 12.22° C | 85% | 1018 hPa | 0 mm | - | - | - |
| 1777796857 | 12.22° C | 85% | 1018 hPa | 0 mm | - | - | - |
| 1777796257 | 12.22° C | 86% | 1018 hPa | 0 mm | - | - | - |
| 1777795656 | 12.22° C | 86% | 1018 hPa | 0 mm | - | - | - |
| 1777795055 | 12.78° C | 84% | 1018 hPa | 0 mm | - | - | - |
| 1777794455 | 12.78° C | 84% | 1018 hPa | 0 mm | - | - | - |
| 1777793854 | 13.33° C | 84% | 1018 hPa | 0 mm | - | - | - |
| 1777793253 | 13.33° C | 84% | 1019 hPa | 0 mm | - | - | - |
| 1777792653 | 12.78° C | 85% | 1019 hPa | 0 mm | - | - | - |
| 1777792052 | 12.78° C | 87% | 1019 hPa | 0 mm | - | - | - |
| 1777791451 | 12.78° C | 87% | 1019 hPa | 0 mm | - | - | - |
| 1777790850 | 12.78° C | 86% | 1019 hPa | 0 mm | - | - | - |
| 1777790250 | 13.33° C | 82% | 1019 hPa | 0 mm | - | - | - |
| 1777789649 | 13.33° C | 82% | 1019 hPa | 0 mm | - | - | - |
| 1777789049 | 13.33° C | 82% | 1019 hPa | 0 mm | - | - | - |
| 1777788448 | 13.33° C | 82% | 1019 hPa | 0 mm | - | - | - |
| 1777787847 | 13.89° C | 81% | 1019 hPa | 0 mm | - | - | - |
| 1777787247 | 13.89° C | 81% | 1019 hPa | 0 mm | - | - | - |
| 1777786646 | 13.89° C | 82% | 1019 hPa | 0 mm | - | - | - |
* Rain latest hour (hover to see other rain measurements)
** Current wind speed in m/s (hover to see current wind gust speed)